Time;durP1;ratioP1;P1;durP2;ratioP2;P2;SDS_P1;SDS_P2;PMS_P1;PMS_P2;Temp;Humidity;BMP_temperature;BMP_pressure;BME280_temperature;BME280_humidity;BME280_pressure;Samples;Min_cycle;Max_cycle;Signal;HPM_P1;HPM_P2
2023/10/16 00:01:03;;;;;;;38.47;23.25;;;9.30;99.90;;;;;;6126391;23;20056;-77
2023/10/16 00:03:32;;;;;;;37.00;22.75;;;9.20;99.90;;;;;;6150924;23;20103;-78
2023/10/16 00:06:05;;;;;;;35.13;22.50;;;9.10;99.90;;;;;;6155383;23;20096;-78
2023/10/16 00:08:33;;;;;;;39.22;23.60;;;9.10;99.90;;;;;;6157142;23;20052;-79
2023/10/16 00:11:03;;;;;;;40.75;24.67;;;9.10;99.90;;;;;;6158797;23;20289;-82
2023/10/16 00:13:35;;;;;;;37.05;25.08;;;9.10;99.90;;;;;;6125957;23;20014;-78
2023/10/16 00:16:04;;;;;;;38.72;24.20;;;8.80;99.90;;;;;;6162464;23;20060;-80
2023/10/16 00:18:33;;;;;;;35.30;23.98;;;8.80;99.90;;;;;;6152716;23;20044;-81
2023/10/16 00:21:05;;;;;;;42.40;26.08;;;8.70;99.90;;;;;;6155368;23;20524;-83
2023/10/16 00:23:38;;;;;;;37.00;25.25;;;8.70;99.90;;;;;;6149802;23;20021;-79
2023/10/16 00:26:06;;;;;;;40.10;27.20;;;8.50;99.90;;;;;;6150416;23;20030;-80
2023/10/16 00:28:33;;;;;;;42.75;26.73;;;8.50;99.90;;;;;;6160125;23;20014;-81
2023/10/16 00:31:03;;;;;;;45.05;26.95;;;8.40;99.90;;;;;;6162694;23;20028;-80
2023/10/16 00:33:31;;;;;;;40.22;23.58;;;8.50;99.90;;;;;;6155858;23;20021;-81
2023/10/16 00:36:00;;;;;;;38.92;24.15;;;8.60;99.90;;;;;;6159827;23;20084;-78
2023/10/16 00:38:36;;;;;;;35.28;23.42;;;8.60;99.90;;;;;;6156641;23;20399;-80
2023/10/16 00:41:15;;;;;;;37.88;22.58;;;8.60;99.90;;;;;;6151426;23;20092;-80
2023/10/16 00:43:45;;;;;;;36.60;22.70;;;8.60;99.90;;;;;;6152153;23;20024;-81
2023/10/16 00:46:27;;;;;;;40.92;22.70;;;8.60;99.90;;;;;;6157748;23;20031;-80
2023/10/16 00:48:58;;;;;;;37.72;23.00;;;8.60;99.90;;;;;;6128411;23;20121;-80
2023/10/16 00:51:28;;;;;;;41.83;24.95;;;8.60;99.90;;;;;;6154493;23;20064;-80
2023/10/16 00:53:57;;;;;;;49.67;28.83;;;8.60;99.90;;;;;;6150028;23;20021;-81
2023/10/16 00:56:27;;;;;;;42.78;24.65;;;8.60;99.90;;;;;;6157614;23;20025;-79
2023/10/16 00:58:57;;;;;;;43.53;23.27;;;8.60;99.90;;;;;;6150731;23;20029;-79
2023/10/16 01:01:25;;;;;;;39.70;22.52;;;8.70;99.90;;;;;;6162785;23;20017;-80
2023/10/16 01:03:57;;;;;;;52.55;26.25;;;8.70;99.90;;;;;;6150975;23;20032;-80
2023/10/16 01:06:31;;;;;;;46.45;25.02;;;8.80;99.90;;;;;;6125474;23;20036;-78
2023/10/16 01:09:01;;;;;;;39.47;21.85;;;8.70;99.90;;;;;;6149669;23;20476;-79
2023/10/16 01:11:28;;;;;;;44.17;22.08;;;8.70;99.90;;;;;;6125451;23;20032;-78
2023/10/16 01:13:56;;;;;;;53.50;25.08;;;8.70;99.90;;;;;;6149992;23;20035;-79
2023/10/16 01:16:23;;;;;;;60.65;26.77;;;8.60;99.90;;;;;;6150710;23;20024;-79
2023/10/16 01:18:52;;;;;;;103.22;26.58;;;8.70;99.90;;;;;;6152682;23;20035;-80
2023/10/16 01:21:20;;;;;;;101.53;26.58;;;8.80;99.90;;;;;;6126264;23;20022;-80
2023/10/16 01:23:51;;;;;;;54.97;26.77;;;8.80;99.90;;;;;;6155732;23;20029;-80
2023/10/16 01:26:18;;;;;;;52.05;27.13;;;8.70;99.90;;;;;;6127967;23;20036;-80
2023/10/16 01:28:46;;;;;;;99.80;27.40;;;8.70;99.90;;;;;;6161359;23;20403;-82
2023/10/16 01:31:13;;;;;;;62.58;26.60;;;8.60;99.90;;;;;;6162401;23;20064;-81
2023/10/16 01:33:44;;;;;;;50.05;22.60;;;8.60;99.90;;;;;;6151781;23;20032;-81
2023/10/16 01:36:13;;;;;;;54.35;24.75;;;8.70;99.90;;;;;;6116229;23;20025;-79
2023/10/16 01:38:41;;;;;;;45.70;23.45;;;8.60;99.90;;;;;;6128705;23;20084;-79
2023/10/16 01:41:13;;;;;;;46.75;23.95;;;8.40;99.90;;;;;;6129130;23;20611;-79
2023/10/16 01:43:44;;;;;;;48.35;22.15;;;8.50;99.90;;;;;;6151585;23;20022;-80
2023/10/16 01:46:14;;;;;;;46.08;21.88;;;8.50;99.90;;;;;;6152380;23;20077;-79
2023/10/16 01:48:44;;;;;;;47.22;21.40;;;8.30;99.90;;;;;;6157376;23;20026;-80
2023/10/16 01:51:15;;;;;;;43.45;21.08;;;8.40;99.90;;;;;;6133707;23;20102;-79
2023/10/16 01:53:44;;;;;;;70.10;24.05;;;8.50;99.90;;;;;;6165222;23;20111;-80
2023/10/16 01:56:17;;;;;;;48.75;25.48;;;8.40;99.90;;;;;;6151664;23;20028;-78
2023/10/16 01:58:46;;;;;;;47.22;23.65;;;8.40;99.90;;;;;;6126397;23;21955;-80
2023/10/16 02:01:16;;;;;;;44.30;24.02;;;8.50;99.90;;;;;;6127815;23;20025;-78
2023/10/16 02:03:45;;;;;;;47.25;23.13;;;8.50;99.90;;;;;;6150732;23;20076;-81
2023/10/16 02:06:13;;;;;;;54.55;24.48;;;8.50;99.90;;;;;;6152008;23;20025;-80
2023/10/16 02:08:40;;;;;;;79.90;25.88;;;8.70;99.90;;;;;;6156395;23;20017;-79
2023/10/16 02:11:10;;;;;;;48.78;25.85;;;8.60;99.90;;;;;;6150380;23;20029;-79
2023/10/16 02:13:40;;;;;;;52.22;23.92;;;8.60;99.90;;;;;;6150829;23;20370;-78
2023/10/16 02:16:10;;;;;;;71.03;23.23;;;8.60;99.90;;;;;;6151985;23;20024;-80
2023/10/16 02:18:40;;;;;;;83.65;23.30;;;8.60;99.90;;;;;;6128863;23;20025;-79
2023/10/16 02:21:11;;;;;;;54.95;24.55;;;8.50;99.90;;;;;;6165047;23;20026;-78
2023/10/16 02:23:38;;;;;;;58.20;25.08;;;8.40;99.90;;;;;;6161394;23;20442;-80
2023/10/16 02:26:07;;;;;;;54.85;23.85;;;8.50;99.90;;;;;;6133753;23;20346;-79
2023/10/16 02:28:35;;;;;;;69.38;22.75;;;8.50;99.90;;;;;;6171974;23;20209;-78
2023/10/16 02:31:13;;;;;;;73.63;23.27;;;8.40;99.90;;;;;;6172629;23;20024;-77
2023/10/16 02:33:45;;;;;;;70.53;21.88;;;8.40;99.90;;;;;;6165224;23;20021;-79
2023/10/16 02:36:13;;;;;;;45.63;19.05;;;8.30;99.90;;;;;;6142259;23;20089;-81
2023/10/16 02:38:41;;;;;;;52.13;19.67;;;8.50;99.90;;;;;;6178840;23;20040;-79
2023/10/16 02:41:09;;;;;;;45.90;20.95;;;8.60;99.90;;;;;;6183033;23;20013;-80
2023/10/16 02:43:41;;;;;;;48.10;19.48;;;8.40;99.90;;;;;;6184736;23;20009;-80
2023/10/16 02:46:10;;;;;;;42.33;18.02;;;8.60;99.90;;;;;;6148485;23;20018;-79
2023/10/16 02:48:38;;;;;;;41.70;17.58;;;8.60;99.90;;;;;;6173043;23;20026;-80
2023/10/16 02:51:06;;;;;;;45.55;19.50;;;8.60;99.90;;;;;;6146591;23;20088;-79
2023/10/16 02:53:36;;;;;;;47.50;20.55;;;8.50;99.90;;;;;;6145707;23;20029;-78
2023/10/16 02:56:06;;;;;;;45.70;17.75;;;8.50;99.90;;;;;;6181815;23;20032;-80
2023/10/16 02:58:34;;;;;;;47.92;19.92;;;8.50;99.90;;;;;;6146360;23;20022;-77
2023/10/16 03:01:06;;;;;;;62.97;22.45;;;8.40;99.90;;;;;;6143355;23;20028;-80
2023/10/16 03:03:35;;;;;;;50.95;23.20;;;8.30;99.90;;;;;;6177466;23;20029;-80
2023/10/16 03:06:03;;;;;;;46.88;23.38;;;8.20;99.90;;;;;;6176170;23;20026;-79
2023/10/16 03:08:31;;;;;;;53.30;23.15;;;8.20;99.90;;;;;;6151961;23;20026;-80
2023/10/16 03:10:59;;;;;;;58.15;22.10;;;8.30;99.90;;;;;;6186526;23;20049;-80
2023/10/16 03:13:27;;;;;;;50.67;19.05;;;8.30;99.90;;;;;;6188932;23;20065;-79
2023/10/16 03:16:05;;;;;;;54.83;19.75;;;8.30;99.90;;;;;;6154444;23;20069;-79
2023/10/16 03:18:33;;;;;;;50.50;17.95;;;8.40;99.90;;;;;;6150785;23;20399;-78
2023/10/16 03:21:26;;;;;;;54.30;20.60;;;8.50;99.90;;;;;;6176534;23;20052;-80
2023/10/16 03:23:54;;;;;;;54.42;17.90;;;8.60;99.90;;;;;;6174650;23;20021;-79
2023/10/16 03:26:28;;;;;;;62.25;20.17;;;8.40;99.90;;;;;;6156507;23;20116;-80
2023/10/16 03:28:56;;;;;;;58.35;21.90;;;8.50;99.90;;;;;;6161539;23;20093;-78
2023/10/16 03:31:25;;;;;;;63.20;22.60;;;8.50;99.90;;;;;;6139321;23;20033;-81
2023/10/16 03:33:54;;;;;;;53.95;21.42;;;8.60;99.90;;;;;;6154679;23;20026;-79
2023/10/16 03:36:23;;;;;;;63.97;22.50;;;8.70;99.90;;;;;;6155878;23;20021;-79
2023/10/16 03:38:51;;;;;;;52.63;20.90;;;8.90;99.90;;;;;;6127187;23;20021;-80
2023/10/16 03:41:27;;;;;;;54.42;22.05;;;8.90;99.90;;;;;;6159747;23;20026;-78
2023/10/16 03:43:57;;;;;;;59.67;22.63;;;9.00;99.90;;;;;;6161484;23;20073;-80
2023/10/16 03:46:24;;;;;;;62.63;22.15;;;9.00;99.90;;;;;;6153998;23;20093;-79
2023/10/16 03:48:52;;;;;;;59.08;20.90;;;9.00;99.90;;;;;;6154330;23;20144;-79
2023/10/16 03:51:21;;;;;;;52.60;20.15;;;9.00;99.90;;;;;;6156791;23;20029;-80
2023/10/16 03:53:52;;;;;;;59.55;21.38;;;8.90;99.90;;;;;;6152846;23;20443;-80
2023/10/16 03:56:20;;;;;;;54.90;22.42;;;8.90;99.90;;;;;;6153138;23;20025;-81
2023/10/16 03:58:57;;;;;;;57.72;23.88;;;8.90;99.90;;;;;;6161673;23;20030;-80
2023/10/16 04:01:27;;;;;;;53.08;22.08;;;9.00;99.90;;;;;;6152869;23;20052;-82
2023/10/16 04:03:57;;;;;;;57.03;23.73;;;8.90;99.90;;;;;;6164483;23;20013;-80
2023/10/16 04:06:26;;;;;;;47.72;20.65;;;8.90;99.90;;;;;;6155850;23;20025;-79
2023/10/16 04:08:58;;;;;;;45.78;20.88;;;8.90;99.90;;;;;;6156895;23;20092;-82
2023/10/16 04:11:25;;;;;;;48.33;21.23;;;8.90;99.90;;;;;;6159322;23;20029;-81
2023/10/16 04:13:53;;;;;;;53.08;22.10;;;8.90;99.90;;;;;;6161457;23;20017;-80
2023/10/16 04:16:42;;;;;;;57.08;26.30;;;9.00;99.90;;;;;;6154288;23;20439;-81
2023/10/16 04:22:07;;;;;;;49.25;23.33;;;8.80;99.90;;;;;;6153087;23;20021;-81
2023/10/16 04:24:44;;;;;;;44.95;23.63;;;8.80;99.90;;;;;;6155060;23;20641;-81
2023/10/16 04:27:32;;;;;;;50.38;23.75;;;8.80;99.90;;;;;;6152565;23;20018;-80
2023/10/16 04:36:49;;;;;;;28.75;16.55;;;9.10;99.90;;;;;;6152068;23;20028;-81
2023/10/16 04:38:54;;;;;;;19.80;11.50;;;9.10;99.90;;;;;;6157671;23;20084;-82
2023/10/16 04:44:49;;;;;;;19.48;12.98;;;9.10;99.90;;;;;;6162047;23;20034;-80
2023/10/16 04:47:17;;;;;;;21.90;13.20;;;9.10;99.90;;;;;;6128739;23;20029;-79
2023/10/16 04:49:59;;;;;;;19.52;13.07;;;9.10;99.90;;;;;;6164558;23;20064;-80
2023/10/16 04:53:06;;;;;;;21.25;13.32;;;9.10;99.90;;;;;;6165679;23;20020;-81
2023/10/16 05:01:17;;;;;;;19.50;13.75;;;9.00;99.90;;;;;;6156490;23;20025;-80
2023/10/16 05:03:56;;;;;;;20.20;13.02;;;9.00;99.90;;;;;;6176012;23;20085;-79
2023/10/16 05:06:38;;;;;;;19.98;12.98;;;9.10;99.90;;;;;;6173333;23;20033;-80
2023/10/16 05:15:20;;;;;;;21.40;12.95;;;9.10;99.90;;;;;;6173149;23;20036;-81
2023/10/16 05:17:21;;;;;;;19.05;12.30;;;9.10;99.90;;;;;;6163090;23;20045;-80
2023/10/16 05:19:54;;;;;;;18.95;13.18;;;9.20;99.90;;;;;;6161041;23;20029;-81
2023/10/16 06:15:08;;;;;;;15.02;9.98;;;10.00;1.00;;;;;;6035094;23;20039;-80
2023/10/16 06:17:37;;;;;;;15.98;11.10;;;10.10;1.00;;;;;;6040394;23;20030;-81
2023/10/16 06:20:12;;;;;;;15.60;10.88;;;9.60;1.00;;;;;;6043237;23;20024;-81
2023/10/16 06:22:39;;;;;;;16.20;11.05;;;9.10;1.00;;;;;;6036021;23;20098;-80
2023/10/16 06:25:10;;;;;;;17.80;11.55;;;9.00;99.90;;;;;;6160631;23;20518;-80
2023/10/16 06:27:41;;;;;;;15.38;11.27;;;8.90;1.00;;;;;;6157087;23;20040;-79
2023/10/16 06:30:18;;;;;;;15.88;11.25;;;9.00;1.00;;;;;;6159377;23;20017;-77
2023/10/16 06:32:49;;;;;;;14.23;9.75;;;8.90;91.30;;;;;;6157061;23;20025;-80
2023/10/16 06:35:18;;;;;;;14.55;10.60;;;9.10;99.90;;;;;;6127976;23;20616;-79
2023/10/16 06:37:51;;;;;;;17.88;11.45;;;9.10;1.00;;;;;;6164044;23;20033;-81
2023/10/16 06:40:24;;;;;;;13.45;9.68;;;9.10;1.00;;;;;;6168782;23;20014;-80
2023/10/16 06:43:09;;;;;;;13.27;9.82;;;9.30;1.00;;;;;;6159701;23;20466;-80
2023/10/16 06:45:53;;;;;;;12.80;9.02;;;9.50;99.90;;;;;;6130461;23;20378;-81
2023/10/16 06:48:22;;;;;;;11.75;8.18;;;9.30;1.00;;;;;;6153249;23;20343;-79
2023/10/16 06:50:54;;;;;;;12.43;8.00;;;9.30;44.00;;;;;;6159109;23;20065;-81
2023/10/16 06:53:23;;;;;;;13.82;8.63;;;9.50;99.90;;;;;;6128285;23;20029;-81
2023/10/16 06:55:51;;;;;;;12.80;9.52;;;9.40;1.00;;;;;;6127963;23;20032;-84
2023/10/16 06:58:21;;;;;;;10.48;7.45;;;9.30;99.90;;;;;;6129485;23;20018;-81
2023/10/16 07:00:49;;;;;;;13.40;8.27;;;9.30;1.00;;;;;;6129997;23;20031;-81
2023/10/16 07:03:17;;;;;;;11.63;8.02;;;9.20;1.00;;;;;;6131606;23;20398;-82
2023/10/16 07:05:45;;;;;;;11.73;7.57;;;9.30;1.00;;;;;;6130559;23;20056;-82
2023/10/16 07:08:17;;;;;;;12.20;8.52;;;9.20;99.90;;;;;;6156257;23;20010;-82
2023/10/16 07:10:49;;;;;;;9.73;6.32;;;9.30;1.00;;;;;;6153265;23;20029;-81
2023/10/16 07:13:26;;;;;;;10.88;6.68;;;9.50;1.00;;;;;;6179262;23;20018;-83
2023/10/16 07:15:57;;;;;;;10.05;5.95;;;9.60;1.00;;;;;;6130968;23;20026;-83
2023/10/16 07:18:25;;;;;;;11.77;6.30;;;9.60;99.90;;;;;;6157439;23;20026;-84
2023/10/16 07:20:59;;;;;;;9.73;5.75;;;9.60;70.50;;;;;;6161116;23;20079;-80
2023/10/16 07:23:29;;;;;;;10.13;5.90;;;9.50;99.00;;;;;;6132811;23;20521;-80
2023/10/16 07:25:58;;;;;;;10.63;6.63;;;9.70;21.10;;;;;;6167178;23;20017;-79
2023/10/16 07:28:29;;;;;;;10.30;7.00;;;9.90;1.00;;;;;;6171341;23;20548;-81
2023/10/16 07:30:59;;;;;;;12.10;8.48;;;9.90;99.90;;;;;;6180062;23;20052;-82
2023/10/16 07:33:29;;;;;;;16.38;10.75;;;10.10;1.00;;;;;;6133275;23;20029;-81
2023/10/16 07:36:10;;;;;;;14.18;8.30;;;10.20;60.50;;;;;;6141427;23;20021;-83
2023/10/16 07:38:42;;;;;;;13.05;8.00;;;10.30;1.00;;;;;;6174552;23;20021;-81
2023/10/16 07:41:18;;;;;;;15.50;10.10;;;10.40;99.90;;;;;;6151035;23;20037;-80
2023/10/16 07:43:56;;;;;;;11.40;7.38;;;10.70;99.90;;;;;;6141832;23;20025;-79
2023/10/16 07:46:29;;;;;;;15.98;9.20;;;11.00;1.00;;;;;;6163592;23;20089;-80
2023/10/16 07:49:01;;;;;;;14.18;7.88;;;11.20;99.90;;;;;;6126745;23;20172;-80
2023/10/16 07:51:29;;;;;;;11.02;5.85;;;11.40;1.00;;;;;;6155397;23;20033;-81
2023/10/16 07:54:00;;;;;;;13.02;9.70;;;11.60;99.90;;;;;;6155619;23;20076;-80
2023/10/16 07:56:30;;;;;;;11.48;7.10;;;11.40;99.90;;;;;;6152999;23;20026;-81
2023/10/16 07:59:06;;;;;;;12.32;8.63;;;11.30;99.90;;;;;;6163351;23;20053;-80
2023/10/16 08:01:41;;;;;;;9.73;6.35;;;11.40;99.90;;;;;;6166841;23;20017;-82
2023/10/16 08:04:35;;;;;;;10.35;5.43;;;11.60;99.90;;;;;;6168459;23;20010;-81
2023/10/16 08:07:16;;;;;;;9.98;6.03;;;11.60;99.90;;;;;;6133254;23;20045;-81
2023/10/16 08:10:28;;;;;;;8.77;5.93;;;11.60;41.40;;;;;;6157652;23;20457;-80
2023/10/16 08:12:46;;;;;;;11.27;7.28;;;11.50;1.00;;;;;;6131200;23;20029;-81
2023/10/16 08:15:21;;;;;;;12.65;7.70;;;11.40;1.00;;;;;;6158227;23;20036;-80
2023/10/16 08:17:51;;;;;;;10.57;5.97;;;11.50;1.00;;;;;;6170929;23;20029;-78
2023/10/16 08:20:19;;;;;;;7.88;4.95;;;11.40;1.00;;;;;;6141267;23;20407;-80
2023/10/16 08:22:48;;;;;;;10.45;6.78;;;11.40;1.00;;;;;;6168861;23;20033;-81
2023/10/16 08:25:33;;;;;;;10.32;5.68;;;11.40;1.00;;;;;;6169340;23;20020;-81
2023/10/16 08:28:20;;;;;;;9.33;5.50;;;11.40;1.00;;;;;;6159075;23;20056;-80
2023/10/16 08:30:51;;;;;;;;;;;11.30;1.00;;;;;;6156852;23;20030;-80
2023/10/16 08:33:19;;;;;;;9.77;4.40;;;11.40;1.00;;;;;;6131598;23;19939;-80
2023/10/16 08:35:46;;;;;;;9.68;5.40;;;11.50;1.00;;;;;;6162212;23;20035;-80
2023/10/16 08:38:20;;;;;;;9.15;5.78;;;11.50;1.00;;;;;;6128748;23;20025;-82
2023/10/16 08:40:57;;;;;;;10.85;5.68;;;11.60;1.00;;;;;;6164898;23;20096;-81
2023/10/16 08:43:39;;;;;;;12.35;7.15;;;11.70;1.00;;;;;;6130034;23;20527;-82
2023/10/16 08:46:18;;;;;;;10.52;6.72;;;11.90;1.00;;;;;;6128972;23;20032;-80
2023/10/16 08:48:48;;;;;;;11.10;4.95;;;12.10;1.00;;;;;;6152844;23;20080;-81
2023/10/16 08:51:17;;;;;;;10.48;6.30;;;12.20;99.90;;;;;;6128506;23;20036;-82
2023/10/16 08:53:44;;;;;;;7.45;3.92;;;12.50;99.90;;;;;;6160354;23;20060;-79
2023/10/16 08:56:17;;;;;;;8.70;5.22;;;12.70;99.90;;;;;;6162538;23;20049;-81
2023/10/16 08:58:46;;;;;;;9.85;5.18;;;12.70;99.90;;;;;;6164551;23;20526;-80
2023/10/16 09:01:18;;;;;;;8.48;5.00;;;12.70;99.90;;;;;;6170362;23;20028;-84
2023/10/16 09:04:02;;;;;;;15.23;6.85;;;12.70;99.90;;;;;;6122058;23;20658;-83
2023/10/16 09:07:02;;;;;;;9.93;4.88;;;12.80;99.90;;;;;;6139351;23;20035;-81
2023/10/16 09:09:32;;;;;;;10.88;6.13;;;12.70;99.90;;;;;;6143071;23;20086;-79
2023/10/16 09:18:10;;;;;;;7.30;3.90;;;12.70;99.90;;;;;;6147247;23;20107;-80
2023/10/16 09:20:41;;;;;;;10.93;6.20;;;13.00;99.90;;;;;;6128830;23;20064;-82
2023/10/16 09:23:13;;;;;;;6.32;3.17;;;13.00;1.00;;;;;;6154482;23;20088;-83
2023/10/16 09:25:44;;;;;;;11.48;4.15;;;13.20;1.00;;;;;;6157503;23;20096;-82
2023/10/16 09:28:18;;;;;;;12.60;6.22;;;13.00;1.00;;;;;;6167842;23;20013;-81
2023/10/16 09:30:48;;;;;;;8.88;4.75;;;12.90;99.90;;;;;;6155757;23;20018;-82
2023/10/16 09:33:16;;;;;;;6.10;3.88;;;12.80;1.00;;;;;;6160649;23;20091;-81
2023/10/16 09:35:44;;;;;;;8.88;3.85;;;12.70;1.00;;;;;;6160883;23;20025;-84
2023/10/16 09:38:19;;;;;;;6.57;3.60;;;12.80;1.00;;;;;;6165512;23;20018;-83
2023/10/16 09:41:37;;;;;;;7.60;4.00;;;12.80;1.00;;;;;;6134307;23;20022;-83
2023/10/16 09:44:07;;;;;;;20.98;13.82;;;12.60;1.00;;;;;;6151722;23;20033;-81
2023/10/16 09:46:52;;;;;;;10.10;6.28;;;12.40;1.00;;;;;;6130897;23;20018;-81
2023/10/16 09:49:24;;;;;;;7.07;4.38;;;12.40;99.90;;;;;;6133016;23;20045;-83
2023/10/16 09:51:59;;;;;;;7.35;3.90;;;12.40;99.90;;;;;;6155204;23;20053;-83
2023/10/16 09:54:30;;;;;;;8.63;3.90;;;12.30;99.90;;;;;;6128468;23;20022;-82
2023/10/16 09:57:06;;;;;;;9.90;5.20;;;12.30;99.90;;;;;;6159818;23;20021;-82
2023/10/16 09:59:38;;;;;;;9.80;4.82;;;12.40;99.90;;;;;;6129676;23;20021;-83
2023/10/16 10:02:08;;;;;;;13.70;5.07;;;12.50;1.00;;;;;;6162746;23;20029;-83
2023/10/16 10:04:38;;;;;;;14.98;9.15;;;12.50;1.00;;;;;;6165447;23;20097;-81
2023/10/16 10:07:13;;;;;;;14.85;7.18;;;12.70;1.00;;;;;;6166373;23;20013;-83
2023/10/16 10:09:46;;;;;;;14.25;7.22;;;12.80;99.90;;;;;;6157023;23;20021;-85
2023/10/16 10:12:42;;;;;;;10.25;6.00;;;13.00;1.00;;;;;;6130765;23;20032;-83
2023/10/16 10:15:22;;;;;;;11.07;6.40;;;13.10;1.00;;;;;;6129078;23;20025;-84
2023/10/16 10:17:54;;;;;;;10.82;4.40;;;13.20;1.00;;;;;;6129272;23;20530;-83
2023/10/16 10:20:26;;;;;;;10.02;5.60;;;13.30;1.00;;;;;;6161104;23;20084;-82
2023/10/16 10:22:59;;;;;;;6.78;3.60;;;13.50;1.00;;;;;;6129109;23;20040;-83
2023/10/16 10:25:35;;;;;;;6.57;3.70;;;13.50;1.00;;;;;;6131237;23;20037;-84
2023/10/16 10:28:10;;;;;;;9.20;4.25;;;13.50;1.00;;;;;;6161548;23;20052;-84
2023/10/16 10:30:45;;;;;;;8.95;4.60;;;13.10;1.00;;;;;;6159714;23;20017;-83
2023/10/16 10:33:14;;;;;;;8.45;4.30;;;13.20;1.00;;;;;;6134173;23;20104;-82
2023/10/16 10:35:43;;;;;;;9.13;5.55;;;13.30;1.00;;;;;;6134172;23;20080;-84
2023/10/16 10:38:24;;;;;;;6.03;3.20;;;13.40;1.00;;;;;;6164921;23;20021;-83
2023/10/16 10:41:14;;;;;;;5.80;3.13;;;13.20;1.00;;;;;;6167951;23;20018;-83
2023/10/16 10:43:48;;;;;;;7.25;4.43;;;13.20;1.00;;;;;;6131676;23;20088;-83
2023/10/16 10:46:28;;;;;;;7.30;3.40;;;13.30;1.00;;;;;;6134361;23;20424;-83
2023/10/16 10:49:00;;;;;;;8.77;4.22;;;13.40;1.00;;;;;;6141633;23;20098;-83
2023/10/16 10:51:35;;;;;;;8.02;4.35;;;13.40;1.00;;;;;;6154084;23;20045;-83
2023/10/16 10:54:03;;;;;;;9.30;5.72;;;13.60;1.00;;;;;;6175823;23;20021;-80
2023/10/16 10:56:42;;;;;;;7.15;3.45;;;13.80;1.50;;;;;;6171951;23;20026;-83
2023/10/16 10:59:11;;;;;;;5.80;3.00;;;13.70;16.90;;;;;;6158380;23;20018;-83
2023/10/16 11:01:52;;;;;;;6.28;2.70;;;13.50;1.00;;;;;;6169157;23;20017;-83
2023/10/16 11:04:20;;;;;;;5.90;2.35;;;13.30;1.00;;;;;;6133864;23;20021;-84
2023/10/16 11:06:52;;;;;;;13.80;6.25;;;13.20;1.00;;;;;;6131194;23;20017;-84
2023/10/16 11:09:26;;;;;;;9.20;5.20;;;13.40;17.20;;;;;;6155787;23;20024;-82
2023/10/16 11:11:54;;;;;;;7.25;2.35;;;13.40;16.60;;;;;;6161028;23;20025;-83
2023/10/16 11:14:35;;;;;;;7.43;2.72;;;13.50;33.60;;;;;;6156726;23;20291;-82
2023/10/16 11:17:06;;;;;;;6.57;2.72;;;13.60;26.90;;;;;;6167174;23;20093;-83
2023/10/16 11:19:47;;;;;;;7.40;3.17;;;13.60;15.90;;;;;;6132662;23;20014;-82
2023/10/16 11:22:19;;;;;;;5.50;2.85;;;13.70;12.80;;;;;;6134952;23;20017;-82
2023/10/16 11:24:48;;;;;;;6.60;3.65;;;13.70;31.00;;;;;;6159079;23;20029;-83
2023/10/16 11:27:16;;;;;;;8.50;3.42;;;13.70;28.30;;;;;;6160491;23;20036;-82
2023/10/16 11:29:46;;;;;;;6.40;3.72;;;13.70;14.80;;;;;;6130230;23;20128;-81
2023/10/16 11:32:16;;;;;;;4.80;2.63;;;13.70;19.40;;;;;;6151392;23;20045;-83
2023/10/16 11:34:45;;;;;;;5.47;3.38;;;13.80;21.90;;;;;;6130713;23;20451;-81
2023/10/16 11:37:14;;;;;;;6.20;4.00;;;13.80;24.90;;;;;;6169257;23;20014;-82
2023/10/16 11:39:47;;;;;;;6.30;3.28;;;13.80;40.30;;;;;;6159847;23;20018;-83
2023/10/16 11:42:15;;;;;;;6.82;3.50;;;13.80;38.90;;;;;;6158990;23;20112;-83
2023/10/16 11:44:44;;;;;;;10.15;4.88;;;13.80;20.70;;;;;;6134493;23;20026;-82
2023/10/16 11:47:18;;;;;;;6.38;3.17;;;13.80;1.00;;;;;;6157232;23;20486;-83
2023/10/16 11:49:54;;;;;;;6.85;3.53;;;13.80;6.50;;;;;;6131919;23;20379;-82
2023/10/16 11:52:23;;;;;;;6.15;3.50;;;13.90;19.20;;;;;;6169717;23;20438;-82
2023/10/16 11:54:56;;;;;;;12.57;5.68;;;13.80;23.10;;;;;;6133189;23;20096;-82
2023/10/16 11:57:24;;;;;;;9.48;5.18;;;14.00;1.00;;;;;;6161458;23;20104;-82
2023/10/16 11:59:52;;;;;;;6.63;3.40;;;14.10;14.30;;;;;;6132993;23;20041;-80
2023/10/16 12:02:21;;;;;;;8.45;3.50;;;14.10;13.30;;;;;;6159700;23;20029;-83
2023/10/16 12:04:49;;;;;;;7.05;3.00;;;14.00;19.20;;;;;;6133939;23;20033;-83
2023/10/16 12:07:19;;;;;;;4.95;3.20;;;14.10;25.00;;;;;;6167796;23;20017;-81
2023/10/16 12:09:51;;;;;;;7.35;3.83;;;14.20;28.90;;;;;;6153695;23;20106;-82
2023/10/16 12:12:20;;;;;;;8.57;3.90;;;14.30;28.70;;;;;;6156383;23;20036;-79
2023/10/16 12:14:49;;;;;;;6.18;3.47;;;14.30;32.70;;;;;;6159188;23;20032;-83
2023/10/16 12:17:20;;;;;;;7.03;3.75;;;14.30;37.80;;;;;;6160657;23;20040;-83
2023/10/16 12:19:48;;;;;;;7.40;3.10;;;14.30;42.80;;;;;;6158207;23;20486;-84
2023/10/16 12:22:23;;;;;;;7.38;2.95;;;14.30;51.00;;;;;;6135517;23;20021;-85
2023/10/16 12:27:44;;;;;;;15.30;9.05;;;14.50;56.90;;;;;;6146073;23;20398;-83
2023/10/16 12:33:20;;;;;;;14.85;5.25;;;14.90;90.20;;;;;;6097208;23;20324;-84
2023/10/16 12:35:50;;;;;;;9.35;5.03;;;14.90;89.00;;;;;;6160517;23;20025;-86
2023/10/16 12:38:44;;;;;;;8.25;4.32;;;14.90;92.40;;;;;;6133202;23;20033;-86
2023/10/16 12:44:08;;;;;;;9.43;4.88;;;14.40;99.90;;;;;;6156916;23;20370;-84
2023/10/16 12:46:38;;;;;;;14.95;8.25;;;14.30;99.90;;;;;;6166072;23;20339;-84
2023/10/16 12:49:14;;;;;;;10.23;5.43;;;14.40;99.90;;;;;;6168676;23;20059;-84
2023/10/16 12:51:43;;;;;;;20.85;7.80;;;14.50;99.90;;;;;;6132281;23;20100;-88
2023/10/16 12:54:15;;;;;;;7.97;4.22;;;14.60;99.90;;;;;;6165866;23;20032;-84
2023/10/16 12:56:43;;;;;;;16.00;4.78;;;14.60;99.90;;;;;;6134275;23;20108;-83
2023/10/16 12:59:11;;;;;;;7.13;3.97;;;14.50;99.90;;;;;;6132978;23;20017;-85
2023/10/16 13:01:40;;;;;;;12.48;5.18;;;14.30;99.90;;;;;;6167207;23;20092;-85
2023/10/16 13:04:13;;;;;;;10.57;5.80;;;14.30;99.90;;;;;;6168215;23;20343;-84
2023/10/16 13:06:43;;;;;;;10.75;5.55;;;14.40;99.90;;;;;;6132060;23;20025;-83
2023/10/16 13:09:16;;;;;;;9.57;5.20;;;14.50;99.90;;;;;;6121746;23;20037;-85
2023/10/16 13:11:46;;;;;;;8.00;4.63;;;14.60;99.90;;;;;;6168158;23;20032;-85
2023/10/16 13:16:57;;;;;;;11.48;5.60;;;14.20;99.90;;;;;;6136970;23;20063;-83
2023/10/16 13:19:29;;;;;;;13.40;7.25;;;14.30;99.90;;;;;;6164207;23;20017;-85
2023/10/16 13:22:10;;;;;;;12.07;5.50;;;14.30;99.90;;;;;;6169502;23;20026;-85
2023/10/16 13:27:24;;;;;;;9.38;5.50;;;14.60;99.90;;;;;;6134766;23;20076;-83
2023/10/16 13:29:53;;;;;;;12.88;7.03;;;14.60;99.90;;;;;;6166468;23;20049;-82
2023/10/16 13:32:21;;;;;;;11.30;5.63;;;14.60;99.90;;;;;;6163594;23;20070;-85
2023/10/16 13:34:51;;;;;;;9.25;5.07;;;14.60;99.90;;;;;;6173349;23;20454;-84
2023/10/16 13:37:20;;;;;;;8.75;4.97;;;14.40;99.90;;;;;;6147095;23;20091;-84
2023/10/16 13:39:52;;;;;;;9.68;4.25;;;14.30;99.90;;;;;;6173179;23;20005;-84
2023/10/16 13:42:21;;;;;;;8.45;4.30;;;14.30;99.90;;;;;;6146821;23;20081;-84
2023/10/16 13:44:51;;;;;;;9.38;5.15;;;14.40;99.90;;;;;;6174078;23;20049;-83
2023/10/16 13:47:19;;;;;;;6.88;4.20;;;14.30;99.90;;;;;;6144363;23;20034;-85
2023/10/16 13:49:50;;;;;;;9.88;4.80;;;14.10;99.90;;;;;;6166449;23;20065;-86
2023/10/16 13:52:26;;;;;;;9.23;5.18;;;14.10;99.90;;;;;;6167127;23;20013;-85
2023/10/16 13:55:00;;;;;;;9.20;4.18;;;14.00;99.90;;;;;;6160251;23;20056;-84
2023/10/16 13:57:29;;;;;;;8.23;4.18;;;14.00;99.90;;;;;;6155396;23;20500;-83
2023/10/16 13:59:59;;;;;;;9.02;4.07;;;13.80;99.90;;;;;;6132012;23;20025;-84
2023/10/16 14:02:27;;;;;;;9.13;5.35;;;13.70;99.90;;;;;;6132882;23;20025;-83
2023/10/16 14:04:58;;;;;;;9.13;5.15;;;13.90;99.90;;;;;;6132637;23;20405;-84
2023/10/16 14:07:30;;;;;;;7.55;4.25;;;14.00;99.90;;;;;;6174406;23;20020;-81
2023/10/16 14:10:02;;;;;;;6.55;3.78;;;13.80;99.90;;;;;;6159236;23;20052;-80
2023/10/16 14:12:37;;;;;;;10.23;5.00;;;13.70;99.90;;;;;;6139120;23;20033;-80
2023/10/16 14:15:05;;;;;;;8.88;4.10;;;13.60;99.90;;;;;;6167633;23;20028;-82
2023/10/16 14:17:43;;;;;;;7.05;3.42;;;13.50;99.90;;;;;;6141653;23;20028;-84
2023/10/16 14:20:29;;;;;;;6.40;3.15;;;13.60;99.90;;;;;;6171221;23;20021;-81
2023/10/16 14:22:59;;;;;;;7.38;3.67;;;13.50;99.90;;;;;;6140363;23;20018;-80
2023/10/16 14:25:35;;;;;;;27.90;14.45;;;13.60;99.90;;;;;;6173581;23;20017;-80
2023/10/16 14:28:19;;;;;;;11.48;5.60;;;13.60;99.90;;;;;;6178112;23;20025;-82
2023/10/16 14:30:47;;;;;;;28.58;13.75;;;13.50;99.90;;;;;;6176271;23;20009;-83
2023/10/16 14:33:15;;;;;;;9.15;4.32;;;13.40;99.90;;;;;;6150768;23;20084;-81
2023/10/16 14:35:43;;;;;;;6.50;3.22;;;13.40;99.90;;;;;;6174389;23;20037;-80
2023/10/16 14:38:10;;;;;;;10.90;5.80;;;13.10;99.90;;;;;;6150345;23;20109;-80
2023/10/16 14:40:42;;;;;;;8.60;3.65;;;13.20;99.90;;;;;;6137006;23;20013;-81
2023/10/16 14:43:09;;;;;;;7.00;3.53;;;13.00;99.90;;;;;;6169055;23;20084;-83
2023/10/16 14:45:38;;;;;;;7.57;4.40;;;13.00;99.90;;;;;;6158790;23;20021;-80